AVA8588 SKCL-SKBQ
Flight info
| Callsign | AVA8588 |
|---|---|
| Flight time | 1h 25m |
| Altitude | 23000 |
| Route | ULQ1B ULQ W3 MRN/N0448F340 UW3 VOVLU VOVLU4A |
| Aircraft | A320/M-SDE3FGHIRWY/LB1 |
Departure
| Time | 2026-05-07 04:29 |
|---|---|
| Airport | Alfonso Bonilla Aragon International Airport (SKCL) |
Arrival
| Time | 2026-05-07 05:55 |
|---|---|
| Airport | Ernesto Cortissoz International Airport (SKBQ) |
| Time | Latitude | Longitude | Altitude | Speed | Heading |
|---|---|---|---|---|---|
| 2026-05-07 04:23 | 3.53919 | -76.38746 | 3163 ft | 0 kts | 95° |
| 2026-05-07 04:24 | 3.53917 | -76.38721 | 3163 ft | 5 kts | 95° |
| 2026-05-07 04:24 | 3.53911 | -76.38680 | 3164 ft | 6 kts | 98° |
| 2026-05-07 04:25 | 3.53883 | -76.38643 | 3163 ft | 11 kts | 144° |
| 2026-05-07 04:25 | 3.53825 | -76.38604 | 3163 ft | 9 kts | 146° |
| 2026-05-07 04:25 | 3.53767 | -76.38563 | 3163 ft | 13 kts | 145° |
| 2026-05-07 04:25 | 3.53694 | -76.38512 | 3163 ft | 12 kts | 145° |
| 2026-05-07 04:26 | 3.53625 | -76.38465 | 3163 ft | 11 kts | 150° |
| 2026-05-07 04:26 | 3.53546 | -76.38464 | 3161 ft | 13 kts | 189° |
| 2026-05-07 04:26 | 3.53467 | -76.38478 | 3162 ft | 11 kts | 191° |
| 2026-05-07 04:26 | 3.53399 | -76.38491 | 3162 ft | 9 kts | 191° |
| 2026-05-07 04:27 | 3.53324 | -76.38504 | 3161 ft | 17 kts | 189° |
| 2026-05-07 04:27 | 3.53180 | -76.38529 | 3161 ft | 22 kts | 191° |
| 2026-05-07 04:27 | 3.53062 | -76.38551 | 3162 ft | 16 kts | 188° |
| 2026-05-07 04:27 | 3.52998 | -76.38539 | 3163 ft | 7 kts | 109° |
| 2026-05-07 04:28 | 3.52991 | -76.38489 | 3160 ft | 7 kts | 95° |
| 2026-05-07 04:28 | 3.52994 | -76.38442 | 3160 ft | 7 kts | 64° |
| 2026-05-07 04:28 | 3.53064 | -76.38389 | 3158 ft | 15 kts | 25° |
| 2026-05-07 04:28 | 3.53196 | -76.38362 | 3158 ft | 36 kts | 10° |
| 2026-05-07 04:29 | 3.53700 | -76.38274 | 3164 ft | 108 kts | 10° |
| 2026-05-07 04:29 | 3.54632 | -76.38107 | 3166 ft | 162 kts | 10° |
| 2026-05-07 04:29 | 3.55802 | -76.37896 | 3649 ft | 173 kts | 10° |
| 2026-05-07 04:29 | 3.57007 | -76.37714 | 4335 ft | 178 kts | 7° |
| 2026-05-07 04:30 | 3.58277 | -76.37513 | 4741 ft | 195 kts | 9° |
| 2026-05-07 04:30 | 3.59686 | -76.37260 | 4997 ft | 217 kts | 10° |
| 2026-05-07 04:30 | 3.61224 | -76.36977 | 5246 ft | 241 kts | 10° |
| 2026-05-07 04:30 | 3.62992 | -76.36654 | 5646 ft | 266 kts | 10° |
| 2026-05-07 04:31 | 3.64840 | -76.36317 | 6288 ft | 279 kts | 10° |
| 2026-05-07 04:31 | 3.66765 | -76.35968 | 7103 ft | 284 kts | 10° |
| 2026-05-07 04:31 | 3.68722 | -76.35616 | 7946 ft | 287 kts | 10° |
| 2026-05-07 04:31 | 3.70674 | -76.35168 | 8776 ft | 291 kts | 17° |
| 2026-05-07 04:32 | 3.72634 | -76.34585 | 9634 ft | 294 kts | 17° |
| 2026-05-07 04:32 | 3.74619 | -76.33996 | 10315 ft | 305 kts | 18° |
| 2026-05-07 04:32 | 3.76727 | -76.33367 | 10599 ft | 327 kts | 18° |
| 2026-05-07 04:32 | 3.78944 | -76.32707 | 11171 ft | 337 kts | 18° |
| 2026-05-07 04:33 | 3.81194 | -76.31999 | 11891 ft | 340 kts | 20° |
| 2026-05-07 04:33 | 3.83450 | -76.31239 | 12637 ft | 344 kts | 21° |
| 2026-05-07 04:33 | 3.85687 | -76.30460 | 13374 ft | 347 kts | 21° |
| 2026-05-07 04:33 | 3.87973 | -76.29654 | 14082 ft | 350 kts | 22° |
| 2026-05-07 04:34 | 3.90285 | -76.28841 | 14695 ft | 354 kts | 21° |
| 2026-05-07 04:34 | 3.92619 | -76.28028 | 15332 ft | 356 kts | 21° |
| 2026-05-07 04:34 | 3.94970 | -76.27215 | 15964 ft | 359 kts | 21° |
| 2026-05-07 04:34 | 3.97345 | -76.26400 | 16585 ft | 362 kts | 21° |
| 2026-05-07 04:35 | 3.99740 | -76.25581 | 17199 ft | 365 kts | 21° |
| 2026-05-07 04:35 | 4.02156 | -76.24756 | 17814 ft | 369 kts | 21° |
| 2026-05-07 04:35 | 4.04592 | -76.23923 | 18422 ft | 372 kts | 21° |
| 2026-05-07 04:35 | 4.07050 | -76.23078 | 18931 ft | 375 kts | 21° |
| 2026-05-07 04:36 | 4.09459 | -76.22160 | 19425 ft | 376 kts | 27° |
| 2026-05-07 04:36 | 4.11758 | -76.20901 | 19927 ft | 378 kts | 31° |
| 2026-05-07 04:36 | 4.14056 | -76.19595 | 20432 ft | 381 kts | 31° |
| 2026-05-07 04:36 | 4.16370 | -76.18283 | 20931 ft | 384 kts | 31° |
| 2026-05-07 04:37 | 4.18706 | -76.16959 | 21407 ft | 387 kts | 31° |
| 2026-05-07 04:37 | 4.21062 | -76.15628 | 21894 ft | 390 kts | 31° |
| 2026-05-07 04:37 | 4.23436 | -76.14287 | 22364 ft | 393 kts | 31° |
| 2026-05-07 04:37 | 4.25826 | -76.12938 | 22824 ft | 396 kts | 30° |
| 2026-05-07 04:38 | 4.28237 | -76.11575 | 23289 ft | 399 kts | 30° |
| 2026-05-07 04:38 | 4.30630 | -76.10228 | 23740 ft | 402 kts | 30° |
| 2026-05-07 04:38 | 4.33080 | -76.08851 | 24109 ft | 405 kts | 30° |
| 2026-05-07 04:38 | 4.35540 | -76.07470 | 24488 ft | 407 kts | 30° |
| 2026-05-07 04:39 | 4.38020 | -76.06080 | 24864 ft | 409 kts | 30° |
| 2026-05-07 04:39 | 4.40511 | -76.04685 | 25234 ft | 412 kts | 30° |
| 2026-05-07 04:39 | 4.43016 | -76.03278 | 25608 ft | 414 kts | 30° |
| 2026-05-07 04:39 | 4.45536 | -76.01862 | 25945 ft | 417 kts | 30° |
| 2026-05-07 04:40 | 4.48064 | -76.00444 | 26048 ft | 414 kts | 30° |
| 2026-05-07 04:40 | 4.50466 | -75.99100 | 26074 ft | 398 kts | 30° |
| 2026-05-07 04:40 | 4.52833 | -75.97780 | 26076 ft | 392 kts | 30° |
| 2026-05-07 04:40 | 4.55210 | -75.96455 | 26076 ft | 390 kts | 30° |
| 2026-05-07 04:41 | 4.57581 | -75.95132 | 26080 ft | 389 kts | 30° |
| 2026-05-07 04:41 | 4.59943 | -75.93810 | 26083 ft | 389 kts | 30° |
| 2026-05-07 04:41 | 4.62306 | -75.92486 | 26086 ft | 389 kts | 30° |
| 2026-05-07 04:41 | 4.64668 | -75.91163 | 26088 ft | 389 kts | 30° |
| 2026-05-07 04:42 | 4.67028 | -75.89841 | 26247 ft | 388 kts | 30° |
| 2026-05-07 04:42 | 4.69373 | -75.88528 | 26593 ft | 388 kts | 30° |
| 2026-05-07 04:42 | 4.71745 | -75.87204 | 26956 ft | 388 kts | 30° |
| 2026-05-07 04:42 | 4.74067 | -75.85909 | 27309 ft | 387 kts | 30° |
| 2026-05-07 04:43 | 4.76422 | -75.84594 | 27670 ft | 387 kts | 30° |
| 2026-05-07 04:43 | 4.78827 | -75.83396 | 28042 ft | 387 kts | 22° |
| 2026-05-07 04:43 | 4.81369 | -75.82501 | 28415 ft | 387 kts | 20° |
| 2026-05-07 04:43 | 4.83914 | -75.81617 | 28795 ft | 387 kts | 20° |
| 2026-05-07 04:44 | 4.86452 | -75.80729 | 29178 ft | 386 kts | 21° |
| 2026-05-07 04:44 | 4.88987 | -75.79841 | 29570 ft | 385 kts | 21° |
| 2026-05-07 04:44 | 4.91517 | -75.78955 | 29968 ft | 385 kts | 21° |
| 2026-05-07 04:44 | 4.94041 | -75.78073 | 30346 ft | 384 kts | 21° |
| 2026-05-07 04:45 | 4.96529 | -75.77203 | 30677 ft | 384 kts | 21° |
| 2026-05-07 04:45 | 4.99050 | -75.76320 | 31014 ft | 383 kts | 21° |
| 2026-05-07 04:45 | 5.01570 | -75.75438 | 31143 ft | 384 kts | 21° |
| 2026-05-07 04:45 | 5.04092 | -75.74557 | 31177 ft | 383 kts | 21° |
| 2026-05-07 04:46 | 5.09119 | -75.72802 | 31177 ft | 382 kts | 21° |
| 2026-05-07 04:46 | 5.14135 | -75.71049 | 31173 ft | 382 kts | 21° |
| 2026-05-07 04:47 | 5.19124 | -75.69312 | 31177 ft | 382 kts | 21° |
| 2026-05-07 04:47 | 5.24140 | -75.67565 | 31173 ft | 381 kts | 21° |
| 2026-05-07 04:48 | 5.29153 | -75.65818 | 31171 ft | 382 kts | 20° |
| 2026-05-07 04:48 | 5.34170 | -75.64070 | 31170 ft | 381 kts | 21° |
| 2026-05-07 04:49 | 5.39151 | -75.62337 | 31167 ft | 381 kts | 20° |
| 2026-05-07 04:49 | 5.44163 | -75.60588 | 31161 ft | 381 kts | 20° |
| 2026-05-07 04:50 | 5.49173 | -75.58844 | 31157 ft | 381 kts | 20° |
| 2026-05-07 04:50 | 5.54188 | -75.57104 | 31153 ft | 381 kts | 20° |
| 2026-05-07 04:51 | 5.59198 | -75.55363 | 31150 ft | 381 kts | 20° |
| 2026-05-07 04:51 | 5.64169 | -75.53631 | 31143 ft | 381 kts | 20° |
| 2026-05-07 04:52 | 5.69180 | -75.51892 | 31138 ft | 381 kts | 20° |
| 2026-05-07 04:52 | 5.74187 | -75.50150 | 31143 ft | 381 kts | 20° |
| 2026-05-07 04:53 | 5.79190 | -75.48406 | 31138 ft | 381 kts | 20° |
| 2026-05-07 04:53 | 5.84191 | -75.46664 | 31168 ft | 380 kts | 20° |
| 2026-05-07 04:54 | 5.89155 | -75.44934 | 31220 ft | 380 kts | 20° |
| 2026-05-07 04:54 | 5.94156 | -75.43188 | 31264 ft | 380 kts | 20° |
| 2026-05-07 04:55 | 5.99108 | -75.41329 | 31307 ft | 379 kts | 27° |
| 2026-05-07 04:55 | 6.03868 | -75.39030 | 31349 ft | 380 kts | 26° |
| 2026-05-07 04:56 | 6.08599 | -75.36751 | 31378 ft | 380 kts | 26° |
| 2026-05-07 04:56 | 6.13358 | -75.34452 | 31382 ft | 379 kts | 26° |
| 2026-05-07 04:57 | 6.18212 | -75.32380 | 31373 ft | 380 kts | 15° |
| 2026-05-07 04:57 | 6.23441 | -75.31510 | 31350 ft | 381 kts | 9° |
| 2026-05-07 04:58 | 6.28653 | -75.30716 | 31312 ft | 381 kts | 9° |
| 2026-05-07 04:58 | 6.33896 | -75.29913 | 31272 ft | 381 kts | 9° |
| 2026-05-07 04:59 | 6.39140 | -75.29111 | 31225 ft | 381 kts | 9° |
| 2026-05-07 04:59 | 6.44382 | -75.28309 | 31177 ft | 381 kts | 9° |
| 2026-05-07 05:00 | 6.49623 | -75.27516 | 31127 ft | 381 kts | 9° |
| 2026-05-07 05:00 | 6.54824 | -75.26725 | 31120 ft | 381 kts | 9° |
| 2026-05-07 05:01 | 6.60061 | -75.25922 | 31116 ft | 381 kts | 9° |
| 2026-05-07 05:01 | 6.65297 | -75.25120 | 31110 ft | 381 kts | 9° |
| 2026-05-07 05:02 | 6.70533 | -75.24317 | 31100 ft | 381 kts | 9° |
| 2026-05-07 05:02 | 6.75775 | -75.23517 | 31096 ft | 381 kts | 9° |
| 2026-05-07 05:03 | 6.80978 | -75.22725 | 31088 ft | 381 kts | 9° |
| 2026-05-07 05:03 | 6.86224 | -75.21927 | 31083 ft | 381 kts | 9° |
| 2026-05-07 05:04 | 6.91469 | -75.21124 | 31072 ft | 381 kts | 9° |
| 2026-05-07 05:04 | 6.96714 | -75.20322 | 31062 ft | 381 kts | 9° |
| 2026-05-07 05:05 | 7.01926 | -75.19526 | 31057 ft | 381 kts | 9° |
| 2026-05-07 05:05 | 7.07174 | -75.18730 | 31040 ft | 381 kts | 9° |
| 2026-05-07 05:06 | 7.12419 | -75.17935 | 31033 ft | 381 kts | 9° |
| 2026-05-07 05:06 | 7.17670 | -75.17149 | 31023 ft | 381 kts | 9° |
| 2026-05-07 05:07 | 7.22882 | -75.16361 | 31012 ft | 381 kts | 9° |
| 2026-05-07 05:07 | 7.28129 | -75.15559 | 31001 ft | 381 kts | 9° |
| 2026-05-07 05:08 | 7.33375 | -75.14761 | 30996 ft | 381 kts | 9° |
| 2026-05-07 05:08 | 7.38638 | -75.13964 | 30986 ft | 383 kts | 8° |
| 2026-05-07 05:09 | 7.43916 | -75.13165 | 30975 ft | 384 kts | 8° |
| 2026-05-07 05:09 | 7.49161 | -75.12372 | 30970 ft | 384 kts | 8° |
| 2026-05-07 05:10 | 7.54439 | -75.11574 | 30966 ft | 383 kts | 8° |
| 2026-05-07 05:10 | 7.59715 | -75.10773 | 30958 ft | 383 kts | 8° |
| 2026-05-07 05:11 | 7.64985 | -75.09972 | 30956 ft | 383 kts | 8° |
| 2026-05-07 05:11 | 7.70256 | -75.09171 | 30951 ft | 383 kts | 8° |
| 2026-05-07 05:12 | 7.75492 | -75.08370 | 30948 ft | 383 kts | 9° |
| 2026-05-07 05:12 | 7.80759 | -75.07554 | 30946 ft | 383 kts | 8° |
| 2026-05-07 05:13 | 7.86030 | -75.06741 | 30948 ft | 383 kts | 9° |
| 2026-05-07 05:13 | 7.91292 | -75.05929 | 30944 ft | 382 kts | 9° |
| 2026-05-07 05:14 | 7.96513 | -75.05119 | 30946 ft | 382 kts | 8° |
| 2026-05-07 05:14 | 8.01767 | -75.04313 | 30942 ft | 382 kts | 8° |
| 2026-05-07 05:15 | 8.07019 | -75.03506 | 30941 ft | 382 kts | 8° |
| 2026-05-07 05:15 | 8.12267 | -75.02698 | 30939 ft | 381 kts | 8° |
| 2026-05-07 05:16 | 8.17515 | -75.01896 | 30939 ft | 381 kts | 8° |
| 2026-05-07 05:16 | 8.22719 | -75.01095 | 30943 ft | 381 kts | 9° |
| 2026-05-07 05:17 | 8.27960 | -75.00282 | 30940 ft | 381 kts | 9° |
| 2026-05-07 05:17 | 8.33200 | -74.99475 | 30931 ft | 381 kts | 9° |
| 2026-05-07 05:18 | 8.38438 | -74.98673 | 30935 ft | 381 kts | 9° |
| 2026-05-07 05:18 | 8.43673 | -74.97865 | 30943 ft | 381 kts | 9° |
| 2026-05-07 05:19 | 8.48872 | -74.97067 | 30936 ft | 380 kts | 9° |
| 2026-05-07 05:19 | 8.54102 | -74.96255 | 30940 ft | 380 kts | 9° |
| 2026-05-07 05:20 | 8.59327 | -74.95442 | 30930 ft | 380 kts | 9° |
| 2026-05-07 05:20 | 8.64555 | -74.94636 | 30936 ft | 380 kts | 9° |
| 2026-05-07 05:21 | 8.72359 | -74.93427 | 30927 ft | 380 kts | 9° |
| 2026-05-07 05:22 | 8.77579 | -74.92613 | 30930 ft | 380 kts | 9° |
| 2026-05-07 05:22 | 8.82799 | -74.91806 | 30931 ft | 379 kts | 9° |
| 2026-05-07 05:23 | 8.87980 | -74.91007 | 30922 ft | 379 kts | 9° |
| 2026-05-07 05:23 | 8.93196 | -74.90199 | 30928 ft | 379 kts | 9° |
| 2026-05-07 05:24 | 8.98407 | -74.89397 | 30928 ft | 379 kts | 9° |
| 2026-05-07 05:24 | 9.03618 | -74.88587 | 30929 ft | 379 kts | 9° |
| 2026-05-07 05:25 | 9.08827 | -74.87774 | 30930 ft | 379 kts | 9° |
| 2026-05-07 05:25 | 9.13999 | -74.86975 | 30929 ft | 379 kts | 9° |
| 2026-05-07 05:26 | 9.19210 | -74.86175 | 30924 ft | 379 kts | 9° |
| 2026-05-07 05:26 | 9.24414 | -74.85370 | 30930 ft | 378 kts | 9° |
| 2026-05-07 05:27 | 9.29636 | -74.84706 | 30924 ft | 379 kts | 0° |
| 2026-05-07 05:27 | 9.34872 | -74.84761 | 30924 ft | 379 kts | 0° |
| 2026-05-07 05:28 | 9.40142 | -74.84804 | 30929 ft | 379 kts | 0° |
| 2026-05-07 05:28 | 9.45417 | -74.84849 | 30899 ft | 380 kts | 0° |
| 2026-05-07 05:28 | 9.48093 | -74.84873 | 30111 ft | 390 kts | 1° |
| 2026-05-07 05:29 | 9.50835 | -74.84897 | 28715 ft | 399 kts | 1° |
| 2026-05-07 05:29 | 9.53640 | -74.84921 | 27432 ft | 405 kts | 1° |
| 2026-05-07 05:29 | 9.56444 | -74.84944 | 26460 ft | 401 kts | 1° |
| 2026-05-07 05:29 | 9.59217 | -74.84967 | 25655 ft | 394 kts | 2° |
| 2026-05-07 05:30 | 9.61839 | -74.84994 | 25490 ft | 370 kts | 2° |
| 2026-05-07 05:30 | 9.64322 | -74.85024 | 25402 ft | 345 kts | 2° |
| 2026-05-07 05:30 | 9.66653 | -74.85050 | 25342 ft | 331 kts | 2° |
| 2026-05-07 05:30 | 9.68987 | -74.85067 | 25277 ft | 337 kts | 2° |
| 2026-05-07 05:31 | 9.71336 | -74.85081 | 25041 ft | 338 kts | 2° |
| 2026-05-07 05:31 | 9.73685 | -74.85098 | 24633 ft | 337 kts | 2° |
| 2026-05-07 05:31 | 9.76028 | -74.85119 | 24185 ft | 337 kts | 2° |
| 2026-05-07 05:31 | 9.78375 | -74.85140 | 23737 ft | 337 kts | 2° |
| 2026-05-07 05:32 | 9.80689 | -74.85161 | 23253 ft | 338 kts | 2° |
| 2026-05-07 05:32 | 9.83033 | -74.85183 | 22782 ft | 336 kts | 2° |
| 2026-05-07 05:32 | 9.85370 | -74.85205 | 22330 ft | 335 kts | 2° |
| 2026-05-07 05:32 | 9.87691 | -74.85225 | 21893 ft | 333 kts | 2° |
| 2026-05-07 05:33 | 9.90004 | -74.85245 | 21458 ft | 332 kts | 2° |
| 2026-05-07 05:33 | 9.92312 | -74.85262 | 21025 ft | 331 kts | 2° |
| 2026-05-07 05:33 | 9.94612 | -74.85279 | 20599 ft | 331 kts | 2° |
| 2026-05-07 05:33 | 9.96914 | -74.85296 | 20165 ft | 330 kts | 2° |
| 2026-05-07 05:34 | 9.99209 | -74.85315 | 19740 ft | 330 kts | 2° |
| 2026-05-07 05:34 | 10.01477 | -74.85335 | 19316 ft | 331 kts | 2° |
| 2026-05-07 05:34 | 10.03782 | -74.85354 | 18881 ft | 331 kts | 2° |
| 2026-05-07 05:34 | 10.06086 | -74.85374 | 18460 ft | 332 kts | 2° |
| 2026-05-07 05:35 | 10.08398 | -74.85395 | 18005 ft | 332 kts | 2° |
| 2026-05-07 05:35 | 10.10708 | -74.85416 | 17556 ft | 332 kts | 2° |
| 2026-05-07 05:35 | 10.13014 | -74.85440 | 17137 ft | 331 kts | 2° |
| 2026-05-07 05:35 | 10.15308 | -74.85463 | 16782 ft | 328 kts | 2° |
| 2026-05-07 05:36 | 10.17584 | -74.85488 | 16393 ft | 327 kts | 2° |
| 2026-05-07 05:36 | 10.19860 | -74.85510 | 15987 ft | 327 kts | 2° |
| 2026-05-07 05:36 | 10.22104 | -74.85528 | 15586 ft | 327 kts | 2° |
| 2026-05-07 05:36 | 10.24383 | -74.85544 | 15176 ft | 327 kts | 2° |
| 2026-05-07 05:37 | 10.26660 | -74.85561 | 14773 ft | 328 kts | 3° |
| 2026-05-07 05:37 | 10.28946 | -74.85580 | 14366 ft | 329 kts | 3° |
| 2026-05-07 05:37 | 10.31234 | -74.85597 | 13952 ft | 330 kts | 3° |
| 2026-05-07 05:37 | 10.33530 | -74.85616 | 13508 ft | 330 kts | 3° |
| 2026-05-07 05:38 | 10.35825 | -74.85638 | 13084 ft | 330 kts | 2° |
| 2026-05-07 05:38 | 10.38122 | -74.85662 | 12662 ft | 329 kts | 2° |
| 2026-05-07 05:38 | 10.40379 | -74.85683 | 12249 ft | 328 kts | 2° |
| 2026-05-07 05:38 | 10.42659 | -74.85703 | 11817 ft | 328 kts | 2° |
| 2026-05-07 05:39 | 10.44940 | -74.85724 | 11390 ft | 327 kts | 2° |
| 2026-05-07 05:39 | 10.47216 | -74.85744 | 10953 ft | 327 kts | 2° |
| 2026-05-07 05:39 | 10.49491 | -74.85765 | 10518 ft | 327 kts | 1° |
| 2026-05-07 05:39 | 10.51766 | -74.85787 | 10069 ft | 327 kts | 1° |
| 2026-05-07 05:40 | 10.54045 | -74.85809 | 9605 ft | 327 kts | 1° |
| 2026-05-07 05:40 | 10.56322 | -74.85829 | 9112 ft | 327 kts | 1° |
| 2026-05-07 05:40 | 10.58586 | -74.85928 | 8640 ft | 327 kts | 353° |
| 2026-05-07 05:40 | 10.60757 | -74.86606 | 8152 ft | 328 kts | 335° |
| 2026-05-07 05:41 | 10.62761 | -74.87717 | 7661 ft | 328 kts | 332° |
| 2026-05-07 05:41 | 10.64730 | -74.88832 | 7159 ft | 329 kts | 332° |
| 2026-05-07 05:41 | 10.66728 | -74.89963 | 6642 ft | 329 kts | 332° |
| 2026-05-07 05:41 | 10.68771 | -74.91008 | 6092 ft | 328 kts | 343° |
| 2026-05-07 05:42 | 10.71009 | -74.91251 | 5557 ft | 323 kts | 4° |
| 2026-05-07 05:42 | 10.73231 | -74.90959 | 5018 ft | 321 kts | 15° |
| 2026-05-07 05:42 | 10.75220 | -74.90016 | 4454 ft | 315 kts | 39° |
| 2026-05-07 05:42 | 10.76805 | -74.88621 | 4300 ft | 286 kts | 42° |
| 2026-05-07 05:43 | 10.78300 | -74.87447 | 4069 ft | 260 kts | 30° |
| 2026-05-07 05:43 | 10.79738 | -74.86573 | 3952 ft | 222 kts | 46° |
| 2026-05-07 05:43 | 10.80574 | -74.85377 | 3906 ft | 201 kts | 57° |
| 2026-05-07 05:43 | 10.81536 | -74.84399 | 3864 ft | 199 kts | 40° |
| 2026-05-07 05:44 | 10.82611 | -74.83512 | 3820 ft | 199 kts | 43° |
| 2026-05-07 05:44 | 10.83327 | -74.82359 | 3752 ft | 195 kts | 84° |
| 2026-05-07 05:44 | 10.83003 | -74.81065 | 3645 ft | 196 kts | 131° |
| 2026-05-07 05:44 | 10.81824 | -74.80368 | 3541 ft | 202 kts | 163° |
| 2026-05-07 05:45 | 10.80511 | -74.79846 | 3420 ft | 204 kts | 152° |
| 2026-05-07 05:45 | 10.79279 | -74.79126 | 3305 ft | 204 kts | 149° |
| 2026-05-07 05:45 | 10.77973 | -74.78579 | 3181 ft | 204 kts | 173° |
| 2026-05-07 05:45 | 10.76587 | -74.78744 | 3062 ft | 200 kts | 204° |
| 2026-05-07 05:46 | 10.75516 | -74.79562 | 2927 ft | 195 kts | 233° |
| 2026-05-07 05:46 | 10.74985 | -74.80806 | 2733 ft | 193 kts | 263° |
| 2026-05-07 05:46 | 10.75124 | -74.82146 | 2527 ft | 192 kts | 293° |
| 2026-05-07 05:46 | 10.75875 | -74.83243 | 2324 ft | 190 kts | 321° |
| 2026-05-07 05:47 | 10.76934 | -74.84052 | 2114 ft | 190 kts | 324° |
| 2026-05-07 05:47 | 10.77807 | -74.85049 | 1913 ft | 191 kts | 296° |
| 2026-05-07 05:47 | 10.78061 | -74.86367 | 1709 ft | 193 kts | 265° |
| 2026-05-07 05:47 | 10.77605 | -74.87637 | 1484 ft | 193 kts | 232° |
| 2026-05-07 05:48 | 10.76636 | -74.88579 | 1371 ft | 194 kts | 220° |
| 2026-05-07 05:48 | 10.75623 | -74.89466 | 1246 ft | 195 kts | 221° |
| 2026-05-07 05:48 | 10.74595 | -74.90372 | 1124 ft | 195 kts | 220° |
| 2026-05-07 05:48 | 10.73664 | -74.91356 | 1179 ft | 191 kts | 240° |
| 2026-05-07 05:49 | 10.73329 | -74.92646 | 1503 ft | 190 kts | 274° |
| 2026-05-07 05:49 | 10.73714 | -74.93882 | 1808 ft | 184 kts | 305° |
| 2026-05-07 05:49 | 10.74669 | -74.94720 | 1974 ft | 182 kts | 336° |
| 2026-05-07 05:49 | 10.75893 | -74.94918 | 2006 ft | 179 kts | 7° |
| 2026-05-07 05:50 | 10.77027 | -74.94456 | 2002 ft | 177 kts | 39° |
| 2026-05-07 05:50 | 10.77765 | -74.93477 | 2005 ft | 176 kts | 67° |
| 2026-05-07 05:50 | 10.78102 | -74.92299 | 2011 ft | 176 kts | 74° |
| 2026-05-07 05:50 | 10.78432 | -74.91101 | 2004 ft | 176 kts | 73° |
| 2026-05-07 05:51 | 10.78762 | -74.89905 | 2004 ft | 176 kts | 74° |
| 2026-05-07 05:51 | 10.79093 | -74.88704 | 2005 ft | 176 kts | 74° |
| 2026-05-07 05:51 | 10.79425 | -74.87502 | 2012 ft | 176 kts | 73° |
| 2026-05-07 05:51 | 10.79776 | -74.86311 | 2017 ft | 176 kts | 68° |
| 2026-05-07 05:52 | 10.80520 | -74.85337 | 1912 ft | 177 kts | 40° |
| 2026-05-07 05:52 | 10.81450 | -74.84533 | 1712 ft | 175 kts | 41° |
| 2026-05-07 05:52 | 10.82377 | -74.83733 | 1494 ft | 174 kts | 40° |
| 2026-05-07 05:52 | 10.83282 | -74.82956 | 1274 ft | 172 kts | 40° |
| 2026-05-07 05:53 | 10.84143 | -74.82218 | 1061 ft | 150 kts | 41° |
| 2026-05-07 05:53 | 10.84903 | -74.81566 | 882 ft | 139 kts | 40° |
| 2026-05-07 05:53 | 10.85627 | -74.80945 | 728 ft | 135 kts | 40° |
| 2026-05-07 05:53 | 10.86337 | -74.80337 | 562 ft | 132 kts | 39° |
| 2026-05-07 05:54 | 10.87044 | -74.79731 | 378 ft | 132 kts | 39° |
| 2026-05-07 05:54 | 10.87740 | -74.79134 | 207 ft | 131 kts | 39° |
| 2026-05-07 05:54 | 10.88402 | -74.78572 | 103 ft | 100 kts | 40° |
| 2026-05-07 05:54 | 10.88764 | -74.78261 | 101 ft | 57 kts | 40° |
| 2026-05-07 05:55 | 10.88985 | -74.78072 | 96 ft | 15 kts | 56° |
| 2026-05-07 05:55 | 10.88940 | -74.77987 | 96 ft | 14 kts | 130° |
| 2026-05-07 05:55 | 10.88880 | -74.77915 | 96 ft | 13 kts | 130° |
| 2026-05-07 05:55 | 10.88826 | -74.77849 | 98 ft | 12 kts | 128° |
| 2026-05-07 05:56 | 10.88768 | -74.77806 | 96 ft | 10 kts | 181° |
| 2026-05-07 05:56 | 10.88717 | -74.77843 | 96 ft | 9 kts | 221° |
| 2026-05-07 05:56 | 10.88658 | -74.77895 | 96 ft | 12 kts | 219° |
| 2026-05-07 05:56 | 10.88597 | -74.77942 | 98 ft | 9 kts | 203° |
| 2026-05-07 05:57 | 10.88553 | -74.77912 | 98 ft | 9 kts | 128° |
| 2026-05-07 05:57 | 10.88506 | -74.77853 | 96 ft | 12 kts | 129° |
| 2026-05-07 05:57 | 10.88456 | -74.77791 | 96 ft | 8 kts | 130° |
| 2026-05-07 05:57 | 10.88458 | -74.77746 | 98 ft | 7 kts | 43° |
| 2026-05-07 05:58 | 10.88493 | -74.77715 | 96 ft | 7 kts | 39° |
| 2026-05-07 05:58 | 10.88513 | -74.77709 | 96 ft | 2 kts | 353° |
| 2026-05-07 05:58 | 10.88519 | -74.77716 | 96 ft | 1 kts | 313° |
| 2026-05-07 05:58 | 10.88529 | -74.77729 | 96 ft | 4 kts | 309° |
| 2026-05-07 05:59 | 10.88531 | -74.77731 | 96 ft | 0 kts | 309° |